aviador You're here:

K20U Decoded Metar

in
Report Time2018-07-18 23:55:00
UTC Time2018-07-19 00:09:29
Flight Rules vfr VFR
Wind100° at 09 kt
W.Rank100° ranks 24
Current wind is above 100° avg. (8.7)
Visibility9999 m
Phenomena:N/A
Clouds:N/A
Expected CloudBase > 5,600 ft AGL from Temp-Dew spread
CeilingNone
Temp25°C
Dew Point11°C (42% RH)
AAT22.1°C
QNH1015 hPa
Raw Report
K20U 182355Z AUTO 10009KT 10SM CLR 25/11 A2998 RMK AO2=

Extra information for K20U:More info

Social comments